sensor_id;sensor_type;location;lat;lon;timestamp;temperature;humidity
15113;DHT22;7657;50.140;7.076;2023-08-08T00:01:11;14.60;99.90
15113;DHT22;7657;50.140;7.076;2023-08-08T00:03:38;14.60;99.90
15113;DHT22;7657;50.140;7.076;2023-08-08T00:06:05;14.60;99.90
15113;DHT22;7657;50.140;7.076;2023-08-08T00:08:32;14.60;99.90
15113;DHT22;7657;50.140;7.076;2023-08-08T00:10:59;14.40;99.90
15113;DHT22;7657;50.140;7.076;2023-08-08T00:13:25;14.40;99.90
15113;DHT22;7657;50.140;7.076;2023-08-08T00:15:52;14.40;99.90
15113;DHT22;7657;50.140;7.076;2023-08-08T00:18:21;14.40;99.90
15113;DHT22;7657;50.140;7.076;2023-08-08T00:20:47;14.40;99.90
15113;DHT22;7657;50.140;7.076;2023-08-08T00:23:14;14.30;99.90
15113;DHT22;7657;50.140;7.076;2023-08-08T00:25:41;14.30;99.90
15113;DHT22;7657;50.140;7.076;2023-08-08T00:28:08;14.40;99.90
15113;DHT22;7657;50.140;7.076;2023-08-08T00:30:35;14.30;99.90
15113;DHT22;7657;50.140;7.076;2023-08-08T00:33:02;14.20;99.90
15113;DHT22;7657;50.140;7.076;2023-08-08T00:35:30;14.20;99.90
15113;DHT22;7657;50.140;7.076;2023-08-08T00:37:57;14.20;99.90
15113;DHT22;7657;50.140;7.076;2023-08-08T00:40:24;14.30;99.90
15113;DHT22;7657;50.140;7.076;2023-08-08T00:42:51;14.30;99.90
15113;DHT22;7657;50.140;7.076;2023-08-08T00:45:18;14.20;99.90
15113;DHT22;7657;50.140;7.076;2023-08-08T00:47:45;14.30;99.90
15113;DHT22;7657;50.140;7.076;2023-08-08T00:50:12;14.30;99.90
15113;DHT22;7657;50.140;7.076;2023-08-08T00:52:41;14.40;99.90
15113;DHT22;7657;50.140;7.076;2023-08-08T00:55:09;14.40;99.90
15113;DHT22;7657;50.140;7.076;2023-08-08T00:57:36;14.30;99.90
15113;DHT22;7657;50.140;7.076;2023-08-08T01:00:05;14.30;99.90
15113;DHT22;7657;50.140;7.076;2023-08-08T01:02:32;14.30;99.90
15113;DHT22;7657;50.140;7.076;2023-08-08T01:05:00;14.20;99.90
15113;DHT22;7657;50.140;7.076;2023-08-08T01:07:31;14.10;99.90
15113;DHT22;7657;50.140;7.076;2023-08-08T01:10:05;14.00;99.90
15113;DHT22;7657;50.140;7.076;2023-08-08T01:12:34;14.00;99.90
15113;DHT22;7657;50.140;7.076;2023-08-08T01:15:07;13.90;99.90
15113;DHT22;7657;50.140;7.076;2023-08-08T01:17:35;14.10;99.90
15113;DHT22;7657;50.140;7.076;2023-08-08T01:20:05;14.10;99.90
15113;DHT22;7657;50.140;7.076;2023-08-08T01:22:37;14.00;99.90
15113;DHT22;7657;50.140;7.076;2023-08-08T01:25:08;14.00;99.90
15113;DHT22;7657;50.140;7.076;2023-08-08T01:27:35;14.00;99.90
15113;DHT22;7657;50.140;7.076;2023-08-08T01:30:03;13.80;99.90
15113;DHT22;7657;50.140;7.076;2023-08-08T01:32:30;13.80;99.90
15113;DHT22;7657;50.140;7.076;2023-08-08T01:34:57;13.70;99.90
15113;DHT22;7657;50.140;7.076;2023-08-08T01:37:29;13.70;99.90
15113;DHT22;7657;50.140;7.076;2023-08-08T01:40:00;13.80;99.90
15113;DHT22;7657;50.140;7.076;2023-08-08T01:42:30;13.80;99.90
15113;DHT22;7657;50.140;7.076;2023-08-08T01:44:57;13.70;99.90
15113;DHT22;7657;50.140;7.076;2023-08-08T01:47:25;13.70;99.90
15113;DHT22;7657;50.140;7.076;2023-08-08T01:49:52;13.60;99.90
15113;DHT22;7657;50.140;7.076;2023-08-08T01:52:19;13.50;99.90
15113;DHT22;7657;50.140;7.076;2023-08-08T01:54:46;13.50;99.90
15113;DHT22;7657;50.140;7.076;2023-08-08T01:57:12;13.50;99.90
15113;DHT22;7657;50.140;7.076;2023-08-08T01:59:41;13.50;99.90
15113;DHT22;7657;50.140;7.076;2023-08-08T02:02:07;13.50;99.90
15113;DHT22;7657;50.140;7.076;2023-08-08T02:04:34;13.40;99.90
15113;DHT22;7657;50.140;7.076;2023-08-08T02:07:01;13.30;99.90
15113;DHT22;7657;50.140;7.076;2023-08-08T02:09:28;13.40;99.90
15113;DHT22;7657;50.140;7.076;2023-08-08T02:11:55;13.40;99.90
15113;DHT22;7657;50.140;7.076;2023-08-08T02:14:22;13.30;99.90
15113;DHT22;7657;50.140;7.076;2023-08-08T02:16:50;13.20;99.90
15113;DHT22;7657;50.140;7.076;2023-08-08T02:19:17;13.20;99.90
15113;DHT22;7657;50.140;7.076;2023-08-08T02:21:44;13.10;99.90
15113;DHT22;7657;50.140;7.076;2023-08-08T02:24:11;13.10;99.90
15113;DHT22;7657;50.140;7.076;2023-08-08T02:26:37;13.20;99.90
15113;DHT22;7657;50.140;7.076;2023-08-08T02:29:04;13.20;99.90
15113;DHT22;7657;50.140;7.076;2023-08-08T02:31:31;13.20;99.90
15113;DHT22;7657;50.140;7.076;2023-08-08T02:33:59;13.20;99.90
15113;DHT22;7657;50.140;7.076;2023-08-08T02:36:26;13.20;99.90
15113;DHT22;7657;50.140;7.076;2023-08-08T02:38:53;13.20;99.90
15113;DHT22;7657;50.140;7.076;2023-08-08T02:41:20;13.20;99.90
15113;DHT22;7657;50.140;7.076;2023-08-08T02:43:47;13.20;99.90
15113;DHT22;7657;50.140;7.076;2023-08-08T02:46:14;13.00;99.90
15113;DHT22;7657;50.140;7.076;2023-08-08T02:48:41;12.80;99.90
15113;DHT22;7657;50.140;7.076;2023-08-08T02:51:09;12.60;99.90
15113;DHT22;7657;50.140;7.076;2023-08-08T02:53:36;12.50;99.90
15113;DHT22;7657;50.140;7.076;2023-08-08T02:56:03;12.40;99.90
15113;DHT22;7657;50.140;7.076;2023-08-08T02:58:30;12.20;99.90
15113;DHT22;7657;50.140;7.076;2023-08-08T03:00:58;12.30;99.90
15113;DHT22;7657;50.140;7.076;2023-08-08T03:03:25;12.30;99.90
15113;DHT22;7657;50.140;7.076;2023-08-08T03:05:52;12.30;99.90
15113;DHT22;7657;50.140;7.076;2023-08-08T03:08:20;12.20;99.90
15113;DHT22;7657;50.140;7.076;2023-08-08T03:10:47;12.10;99.90
15113;DHT22;7657;50.140;7.076;2023-08-08T03:13:14;12.10;99.90
15113;DHT22;7657;50.140;7.076;2023-08-08T03:15:40;12.00;99.90
15113;DHT22;7657;50.140;7.076;2023-08-08T03:18:07;12.00;99.90
15113;DHT22;7657;50.140;7.076;2023-08-08T03:20:34;12.00;99.90
15113;DHT22;7657;50.140;7.076;2023-08-08T03:23:01;12.00;99.90
15113;DHT22;7657;50.140;7.076;2023-08-08T03:25:29;11.90;99.90
15113;DHT22;7657;50.140;7.076;2023-08-08T03:27:56;11.90;99.90
15113;DHT22;7657;50.140;7.076;2023-08-08T03:30:23;11.90;99.90
15113;DHT22;7657;50.140;7.076;2023-08-08T03:32:50;12.00;99.90
15113;DHT22;7657;50.140;7.076;2023-08-08T03:35:17;12.00;99.90
15113;DHT22;7657;50.140;7.076;2023-08-08T03:37:44;12.10;99.90
15113;DHT22;7657;50.140;7.076;2023-08-08T03:40:11;12.20;99.90
15113;DHT22;7657;50.140;7.076;2023-08-08T03:42:40;12.20;99.90
15113;DHT22;7657;50.140;7.076;2023-08-08T03:45:08;12.20;99.90
15113;DHT22;7657;50.140;7.076;2023-08-08T03:47:35;12.20;99.90
15113;DHT22;7657;50.140;7.076;2023-08-08T03:50:03;12.20;99.90
15113;DHT22;7657;50.140;7.076;2023-08-08T03:52:30;12.10;99.90
15113;DHT22;7657;50.140;7.076;2023-08-08T03:54:59;12.10;99.90
15113;DHT22;7657;50.140;7.076;2023-08-08T03:57:26;12.00;99.90
15113;DHT22;7657;50.140;7.076;2023-08-08T03:59:54;12.10;99.90
15113;DHT22;7657;50.140;7.076;2023-08-08T04:02:21;12.20;99.90
15113;DHT22;7657;50.140;7.076;2023-08-08T04:04:48;12.10;99.90
15113;DHT22;7657;50.140;7.076;2023-08-08T04:07:15;12.20;99.90
15113;DHT22;7657;50.140;7.076;2023-08-08T04:09:42;12.30;99.90
15113;DHT22;7657;50.140;7.076;2023-08-08T04:12:09;12.30;99.90
15113;DHT22;7657;50.140;7.076;2023-08-08T04:14:36;12.20;99.90
15113;DHT22;7657;50.140;7.076;2023-08-08T04:17:04;12.10;99.90
15113;DHT22;7657;50.140;7.076;2023-08-08T04:19:31;12.10;99.90
15113;DHT22;7657;50.140;7.076;2023-08-08T04:21:58;11.90;99.90
15113;DHT22;7657;50.140;7.076;2023-08-08T04:24:25;11.90;99.90
15113;DHT22;7657;50.140;7.076;2023-08-08T04:26:52;11.90;99.90
15113;DHT22;7657;50.140;7.076;2023-08-08T04:29:19;11.90;99.90
15113;DHT22;7657;50.140;7.076;2023-08-08T04:31:46;11.90;99.90
15113;DHT22;7657;50.140;7.076;2023-08-08T04:34:14;11.80;99.90
15113;DHT22;7657;50.140;7.076;2023-08-08T04:36:42;12.00;99.90
15113;DHT22;7657;50.140;7.076;2023-08-08T04:39:09;11.90;99.90
15113;DHT22;7657;50.140;7.076;2023-08-08T04:41:36;11.90;99.90
15113;DHT22;7657;50.140;7.076;2023-08-08T04:44:03;11.90;99.90
15113;DHT22;7657;50.140;7.076;2023-08-08T04:46:30;12.00;99.90
15113;DHT22;7657;50.140;7.076;2023-08-08T04:48:57;12.10;99.90
15113;DHT22;7657;50.140;7.076;2023-08-08T04:51:25;12.20;99.90
15113;DHT22;7657;50.140;7.076;2023-08-08T04:53:52;12.20;99.90
15113;DHT22;7657;50.140;7.076;2023-08-08T04:56:19;12.30;99.90
15113;DHT22;7657;50.140;7.076;2023-08-08T04:58:46;12.30;99.90
15113;DHT22;7657;50.140;7.076;2023-08-08T05:01:13;12.30;99.90
15113;DHT22;7657;50.140;7.076;2023-08-08T05:03:41;12.40;99.90
15113;DHT22;7657;50.140;7.076;2023-08-08T05:06:08;12.30;99.90
15113;DHT22;7657;50.140;7.076;2023-08-08T05:08:36;12.20;99.90
15113;DHT22;7657;50.140;7.076;2023-08-08T05:11:03;12.20;99.90
15113;DHT22;7657;50.140;7.076;2023-08-08T05:13:30;12.20;99.90
15113;DHT22;7657;50.140;7.076;2023-08-08T05:15:57;12.30;99.90
15113;DHT22;7657;50.140;7.076;2023-08-08T05:18:23;12.30;99.90
15113;DHT22;7657;50.140;7.076;2023-08-08T05:20:50;12.40;99.90
15113;DHT22;7657;50.140;7.076;2023-08-08T05:23:17;12.40;99.90
15113;DHT22;7657;50.140;7.076;2023-08-08T05:25:45;12.50;99.90
15113;DHT22;7657;50.140;7.076;2023-08-08T05:28:12;12.50;99.90
15113;DHT22;7657;50.140;7.076;2023-08-08T05:30:39;12.60;99.90
15113;DHT22;7657;50.140;7.076;2023-08-08T05:33:06;12.60;99.90
15113;DHT22;7657;50.140;7.076;2023-08-08T05:35:33;12.60;99.90
15113;DHT22;7657;50.140;7.076;2023-08-08T05:38:00;12.60;99.90
15113;DHT22;7657;50.140;7.076;2023-08-08T05:40:26;12.60;99.90
15113;DHT22;7657;50.140;7.076;2023-08-08T05:42:55;12.60;99.90
15113;DHT22;7657;50.140;7.076;2023-08-08T05:45:22;12.60;99.90
15113;DHT22;7657;50.140;7.076;2023-08-08T05:47:48;12.60;99.90
15113;DHT22;7657;50.140;7.076;2023-08-08T05:50:15;12.60;99.90
15113;DHT22;7657;50.140;7.076;2023-08-08T05:52:42;12.50;99.90
15113;DHT22;7657;50.140;7.076;2023-08-08T05:55:09;12.60;99.90
15113;DHT22;7657;50.140;7.076;2023-08-08T05:57:36;12.60;99.90
15113;DHT22;7657;50.140;7.076;2023-08-08T06:00:05;12.40;99.90
15113;DHT22;7657;50.140;7.076;2023-08-08T06:02:36;12.60;99.90
15113;DHT22;7657;50.140;7.076;2023-08-08T06:05:03;12.50;99.90
15113;DHT22;7657;50.140;7.076;2023-08-08T06:07:30;12.50;99.90
15113;DHT22;7657;50.140;7.076;2023-08-08T06:09:57;12.30;99.90
15113;DHT22;7657;50.140;7.076;2023-08-08T06:12:24;12.30;99.90
15113;DHT22;7657;50.140;7.076;2023-08-08T06:14:51;12.40;99.90
15113;DHT22;7657;50.140;7.076;2023-08-08T06:17:19;12.30;99.90
15113;DHT22;7657;50.140;7.076;2023-08-08T06:19:49;12.20;99.90
15113;DHT22;7657;50.140;7.076;2023-08-08T06:22:16;12.20;99.90
15113;DHT22;7657;50.140;7.076;2023-08-08T06:24:43;12.30;99.90
15113;DHT22;7657;50.140;7.076;2023-08-08T06:27:10;12.20;99.90
15113;DHT22;7657;50.140;7.076;2023-08-08T06:29:37;12.30;99.90
15113;DHT22;7657;50.140;7.076;2023-08-08T06:32:04;12.30;99.90
15113;DHT22;7657;50.140;7.076;2023-08-08T06:34:32;12.30;99.90
15113;DHT22;7657;50.140;7.076;2023-08-08T06:36:59;12.30;99.90
15113;DHT22;7657;50.140;7.076;2023-08-08T06:39:26;12.40;99.90
15113;DHT22;7657;50.140;7.076;2023-08-08T06:41:53;12.40;99.90
15113;DHT22;7657;50.140;7.076;2023-08-08T06:44:20;12.50;99.90
15113;DHT22;7657;50.140;7.076;2023-08-08T06:46:47;12.50;99.90
15113;DHT22;7657;50.140;7.076;2023-08-08T06:49:14;12.50;99.90
15113;DHT22;7657;50.140;7.076;2023-08-08T06:51:42;12.60;99.90
15113;DHT22;7657;50.140;7.076;2023-08-08T06:54:09;12.60;99.90
15113;DHT22;7657;50.140;7.076;2023-08-08T06:56:36;12.80;99.90
15113;DHT22;7657;50.140;7.076;2023-08-08T06:59:03;12.80;99.90
15113;DHT22;7657;50.140;7.076;2023-08-08T07:01:30;13.00;99.90
15113;DHT22;7657;50.140;7.076;2023-08-08T07:03:56;13.00;99.90
15113;DHT22;7657;50.140;7.076;2023-08-08T07:06:24;13.10;99.90
15113;DHT22;7657;50.140;7.076;2023-08-08T07:08:52;13.20;99.90
15113;DHT22;7657;50.140;7.076;2023-08-08T07:11:19;13.30;99.90
15113;DHT22;7657;50.140;7.076;2023-08-08T07:13:47;13.40;99.90
15113;DHT22;7657;50.140;7.076;2023-08-08T07:16:14;13.30;99.90
15113;DHT22;7657;50.140;7.076;2023-08-08T07:18:41;13.20;99.90
15113;DHT22;7657;50.140;7.076;2023-08-08T07:21:08;13.30;99.90
15113;DHT22;7657;50.140;7.076;2023-08-08T07:23:35;13.30;99.90
15113;DHT22;7657;50.140;7.076;2023-08-08T07:26:03;13.30;99.90
15113;DHT22;7657;50.140;7.076;2023-08-08T07:28:30;13.50;99.90
15113;DHT22;7657;50.140;7.076;2023-08-08T07:30:57;13.50;99.90
15113;DHT22;7657;50.140;7.076;2023-08-08T07:33:24;13.50;99.90
15113;DHT22;7657;50.140;7.076;2023-08-08T07:35:51;13.50;99.90
15113;DHT22;7657;50.140;7.076;2023-08-08T07:38:18;13.60;99.90
15113;DHT22;7657;50.140;7.076;2023-08-08T07:40:44;13.60;99.90
15113;DHT22;7657;50.140;7.076;2023-08-08T07:43:15;13.60;99.90
15113;DHT22;7657;50.140;7.076;2023-08-08T07:45:42;13.50;99.90
15113;DHT22;7657;50.140;7.076;2023-08-08T07:48:09;13.60;99.90
15113;DHT22;7657;50.140;7.076;2023-08-08T07:50:36;13.60;99.90
15113;DHT22;7657;50.140;7.076;2023-08-08T07:53:03;13.70;99.90
15113;DHT22;7657;50.140;7.076;2023-08-08T07:55:30;13.80;99.90
15113;DHT22;7657;50.140;7.076;2023-08-08T07:57:57;13.70;99.90
15113;DHT22;7657;50.140;7.076;2023-08-08T08:00:25;13.90;99.90
15113;DHT22;7657;50.140;7.076;2023-08-08T08:02:52;13.90;99.90
15113;DHT22;7657;50.140;7.076;2023-08-08T08:05:19;14.00;99.90
15113;DHT22;7657;50.140;7.076;2023-08-08T08:07:46;14.10;99.90
15113;DHT22;7657;50.140;7.076;2023-08-08T08:10:13;14.00;99.90
15113;DHT22;7657;50.140;7.076;2023-08-08T08:12:41;14.00;99.90
15113;DHT22;7657;50.140;7.076;2023-08-08T08:15:08;14.10;99.90
15113;DHT22;7657;50.140;7.076;2023-08-08T08:17:37;14.10;99.90
15113;DHT22;7657;50.140;7.076;2023-08-08T08:20:05;14.10;99.90
15113;DHT22;7657;50.140;7.076;2023-08-08T08:22:36;14.20;99.90
15113;DHT22;7657;50.140;7.076;2023-08-08T08:25:05;14.30;99.90
15113;DHT22;7657;50.140;7.076;2023-08-08T08:27:33;14.30;99.90
15113;DHT22;7657;50.140;7.076;2023-08-08T08:30:00;14.30;99.90
15113;DHT22;7657;50.140;7.076;2023-08-08T08:32:27;14.30;99.90
15113;DHT22;7657;50.140;7.076;2023-08-08T08:34:55;14.40;99.90
15113;DHT22;7657;50.140;7.076;2023-08-08T08:37:22;14.50;99.90
15113;DHT22;7657;50.140;7.076;2023-08-08T08:39:49;14.40;99.90
15113;DHT22;7657;50.140;7.076;2023-08-08T08:42:15;14.50;99.90
15113;DHT22;7657;50.140;7.076;2023-08-08T08:44:43;14.70;99.90
15113;DHT22;7657;50.140;7.076;2023-08-08T08:47:12;14.60;99.90
15113;DHT22;7657;50.140;7.076;2023-08-08T08:49:39;14.60;99.90
15113;DHT22;7657;50.140;7.076;2023-08-08T08:52:09;14.70;99.90
15113;DHT22;7657;50.140;7.076;2023-08-08T08:54:36;14.80;99.90
15113;DHT22;7657;50.140;7.076;2023-08-08T08:57:04;14.90;99.90
15113;DHT22;7657;50.140;7.076;2023-08-08T08:59:31;15.00;99.90
15113;DHT22;7657;50.140;7.076;2023-08-08T09:01:58;15.00;99.90
15113;DHT22;7657;50.140;7.076;2023-08-08T09:04:28;15.10;99.90
15113;DHT22;7657;50.140;7.076;2023-08-08T09:06:56;15.10;99.90
15113;DHT22;7657;50.140;7.076;2023-08-08T09:09:24;15.00;99.90
15113;DHT22;7657;50.140;7.076;2023-08-08T09:11:52;14.90;99.90
15113;DHT22;7657;50.140;7.076;2023-08-08T09:14:21;14.90;99.90
15113;DHT22;7657;50.140;7.076;2023-08-08T09:16:49;15.10;99.90
15113;DHT22;7657;50.140;7.076;2023-08-08T09:19:19;15.00;99.90
15113;DHT22;7657;50.140;7.076;2023-08-08T09:21:46;15.10;99.90
15113;DHT22;7657;50.140;7.076;2023-08-08T09:24:13;15.20;99.90
15113;DHT22;7657;50.140;7.076;2023-08-08T09:26:42;15.10;99.90
15113;DHT22;7657;50.140;7.076;2023-08-08T09:29:11;15.20;99.90
15113;DHT22;7657;50.140;7.076;2023-08-08T09:31:39;15.20;99.90
15113;DHT22;7657;50.140;7.076;2023-08-08T09:34:06;15.30;99.90
15113;DHT22;7657;50.140;7.076;2023-08-08T09:36:33;15.50;99.90
15113;DHT22;7657;50.140;7.076;2023-08-08T09:39:02;15.50;99.90
15113;DHT22;7657;50.140;7.076;2023-08-08T09:41:30;15.40;99.90
15113;DHT22;7657;50.140;7.076;2023-08-08T09:43:59;15.60;99.90
15113;DHT22;7657;50.140;7.076;2023-08-08T09:46:29;15.50;99.90
15113;DHT22;7657;50.140;7.076;2023-08-08T09:48:57;15.70;99.90
15113;DHT22;7657;50.140;7.076;2023-08-08T09:51:25;15.70;99.90
15113;DHT22;7657;50.140;7.076;2023-08-08T09:53:53;15.70;99.90
15113;DHT22;7657;50.140;7.076;2023-08-08T09:56:20;15.90;99.90
15113;DHT22;7657;50.140;7.076;2023-08-08T09:58:48;16.00;99.90
15113;DHT22;7657;50.140;7.076;2023-08-08T10:01:17;16.20;99.90
15113;DHT22;7657;50.140;7.076;2023-08-08T10:03:45;16.30;99.90
15113;DHT22;7657;50.140;7.076;2023-08-08T10:06:13;16.50;99.90
15113;DHT22;7657;50.140;7.076;2023-08-08T10:08:40;16.40;99.90
15113;DHT22;7657;50.140;7.076;2023-08-08T10:11:09;16.50;99.90
15113;DHT22;7657;50.140;7.076;2023-08-08T10:13:37;16.40;99.90
15113;DHT22;7657;50.140;7.076;2023-08-08T10:16:08;16.50;99.90
15113;DHT22;7657;50.140;7.076;2023-08-08T10:18:36;16.50;99.90
15113;DHT22;7657;50.140;7.076;2023-08-08T10:21:04;16.50;99.90
15113;DHT22;7657;50.140;7.076;2023-08-08T10:23:35;16.60;99.90
15113;DHT22;7657;50.140;7.076;2023-08-08T10:26:03;16.70;99.90
15113;DHT22;7657;50.140;7.076;2023-08-08T10:28:32;16.70;99.90
15113;DHT22;7657;50.140;7.076;2023-08-08T10:31:00;16.60;99.90
15113;DHT22;7657;50.140;7.076;2023-08-08T10:33:33;16.70;99.90
15113;DHT22;7657;50.140;7.076;2023-08-08T10:36:08;16.60;99.90
15113;DHT22;7657;50.140;7.076;2023-08-08T10:38:42;16.70;99.90
15113;DHT22;7657;50.140;7.076;2023-08-08T10:41:11;16.80;99.90
15113;DHT22;7657;50.140;7.076;2023-08-08T10:43:38;16.90;99.90
15113;DHT22;7657;50.140;7.076;2023-08-08T10:46:06;16.90;99.90
15113;DHT22;7657;50.140;7.076;2023-08-08T10:48:33;17.10;99.90
15113;DHT22;7657;50.140;7.076;2023-08-08T10:51:00;17.20;99.90
15113;DHT22;7657;50.140;7.076;2023-08-08T10:53:29;17.20;99.90
15113;DHT22;7657;50.140;7.076;2023-08-08T10:56:00;17.20;99.90
15113;DHT22;7657;50.140;7.076;2023-08-08T10:58:37;17.30;99.90
15113;DHT22;7657;50.140;7.076;2023-08-08T11:01:05;17.50;99.90
15113;DHT22;7657;50.140;7.076;2023-08-08T11:03:35;17.50;99.90
15113;DHT22;7657;50.140;7.076;2023-08-08T11:06:03;17.40;99.90
15113;DHT22;7657;50.140;7.076;2023-08-08T11:08:31;17.20;99.90
15113;DHT22;7657;50.140;7.076;2023-08-08T11:10:59;17.20;99.90
15113;DHT22;7657;50.140;7.076;2023-08-08T11:13:26;17.30;99.90
15113;DHT22;7657;50.140;7.076;2023-08-08T11:15:53;17.30;99.90
15113;DHT22;7657;50.140;7.076;2023-08-08T11:18:20;17.40;99.90
15113;DHT22;7657;50.140;7.076;2023-08-08T11:20:48;17.60;99.90
15113;DHT22;7657;50.140;7.076;2023-08-08T11:23:16;17.70;99.90
15113;DHT22;7657;50.140;7.076;2023-08-08T11:25:45;17.50;99.90
15113;DHT22;7657;50.140;7.076;2023-08-08T11:28:12;17.50;99.90
15113;DHT22;7657;50.140;7.076;2023-08-08T11:30:42;17.30;99.90
15113;DHT22;7657;50.140;7.076;2023-08-08T11:33:09;17.30;99.90
15113;DHT22;7657;50.140;7.076;2023-08-08T11:35:37;17.20;99.90
15113;DHT22;7657;50.140;7.076;2023-08-08T11:38:05;17.10;99.90
15113;DHT22;7657;50.140;7.076;2023-08-08T11:40:32;17.10;99.90
15113;DHT22;7657;50.140;7.076;2023-08-08T11:43:01;17.00;99.90
15113;DHT22;7657;50.140;7.076;2023-08-08T11:45:28;17.00;99.90
15113;DHT22;7657;50.140;7.076;2023-08-08T11:47:55;17.00;99.90
15113;DHT22;7657;50.140;7.076;2023-08-08T11:50:23;17.10;99.90
15113;DHT22;7657;50.140;7.076;2023-08-08T11:52:51;17.20;99.90
15113;DHT22;7657;50.140;7.076;2023-08-08T11:55:19;17.30;99.90
15113;DHT22;7657;50.140;7.076;2023-08-08T11:57:48;17.40;99.90
15113;DHT22;7657;50.140;7.076;2023-08-08T12:00:17;17.50;99.90
15113;DHT22;7657;50.140;7.076;2023-08-08T12:02:45;17.60;99.90
15113;DHT22;7657;50.140;7.076;2023-08-08T12:05:14;17.80;99.90
15113;DHT22;7657;50.140;7.076;2023-08-08T12:07:43;18.00;99.90
15113;DHT22;7657;50.140;7.076;2023-08-08T12:10:15;18.00;99.90
15113;DHT22;7657;50.140;7.076;2023-08-08T12:12:43;17.80;99.90
15113;DHT22;7657;50.140;7.076;2023-08-08T12:15:10;17.80;99.90
15113;DHT22;7657;50.140;7.076;2023-08-08T12:17:39;18.00;99.90
15113;DHT22;7657;50.140;7.076;2023-08-08T12:20:07;18.10;99.90
15113;DHT22;7657;50.140;7.076;2023-08-08T12:22:35;18.10;99.90
15113;DHT22;7657;50.140;7.076;2023-08-08T12:25:02;18.00;99.90
15113;DHT22;7657;50.140;7.076;2023-08-08T12:27:29;18.00;99.90
15113;DHT22;7657;50.140;7.076;2023-08-08T12:29:57;18.10;99.90
15113;DHT22;7657;50.140;7.076;2023-08-08T12:32:26;18.20;99.90
15113;DHT22;7657;50.140;7.076;2023-08-08T12:34:55;18.30;99.90
15113;DHT22;7657;50.140;7.076;2023-08-08T12:37:22;18.30;99.90
15113;DHT22;7657;50.140;7.076;2023-08-08T12:39:50;18.40;99.90
15113;DHT22;7657;50.140;7.076;2023-08-08T12:42:17;18.30;99.90
15113;DHT22;7657;50.140;7.076;2023-08-08T12:44:44;18.20;99.90
15113;DHT22;7657;50.140;7.076;2023-08-08T12:47:12;18.30;99.90
15113;DHT22;7657;50.140;7.076;2023-08-08T12:49:39;18.30;99.90
15113;DHT22;7657;50.140;7.076;2023-08-08T12:52:07;18.30;99.90
15113;DHT22;7657;50.140;7.076;2023-08-08T12:54:34;18.30;99.90
15113;DHT22;7657;50.140;7.076;2023-08-08T12:57:02;18.20;99.90
15113;DHT22;7657;50.140;7.076;2023-08-08T12:59:29;18.10;99.90
15113;DHT22;7657;50.140;7.076;2023-08-08T13:01:56;18.00;99.90
15113;DHT22;7657;50.140;7.076;2023-08-08T13:04:23;18.00;99.90
15113;DHT22;7657;50.140;7.076;2023-08-08T13:06:50;18.00;99.90
15113;DHT22;7657;50.140;7.076;2023-08-08T13:09:19;18.10;99.90
15113;DHT22;7657;50.140;7.076;2023-08-08T13:11:45;18.20;99.90
15113;DHT22;7657;50.140;7.076;2023-08-08T13:14:12;18.00;99.90
15113;DHT22;7657;50.140;7.076;2023-08-08T13:16:39;17.90;99.90
15113;DHT22;7657;50.140;7.076;2023-08-08T13:19:06;18.10;99.90
15113;DHT22;7657;50.140;7.076;2023-08-08T13:21:33;18.30;99.90
15113;DHT22;7657;50.140;7.076;2023-08-08T13:24:00;18.40;99.90
15113;DHT22;7657;50.140;7.076;2023-08-08T13:26:28;18.50;99.90
15113;DHT22;7657;50.140;7.076;2023-08-08T13:28:55;18.60;99.90
15113;DHT22;7657;50.140;7.076;2023-08-08T13:31:22;18.50;99.90
15113;DHT22;7657;50.140;7.076;2023-08-08T13:33:49;18.30;99.90
15113;DHT22;7657;50.140;7.076;2023-08-08T13:36:16;18.20;99.90
15113;DHT22;7657;50.140;7.076;2023-08-08T13:38:43;18.00;99.90
15113;DHT22;7657;50.140;7.076;2023-08-08T13:41:10;18.00;99.90
15113;DHT22;7657;50.140;7.076;2023-08-08T13:43:38;17.90;99.90
15113;DHT22;7657;50.140;7.076;2023-08-08T13:46:05;17.90;99.90
15113;DHT22;7657;50.140;7.076;2023-08-08T13:48:35;18.00;99.90
15113;DHT22;7657;50.140;7.076;2023-08-08T13:51:02;17.90;99.90
15113;DHT22;7657;50.140;7.076;2023-08-08T13:53:29;17.90;99.90
15113;DHT22;7657;50.140;7.076;2023-08-08T13:55:56;17.90;99.90
15113;DHT22;7657;50.140;7.076;2023-08-08T13:58:23;17.90;99.90
15113;DHT22;7657;50.140;7.076;2023-08-08T14:00:51;17.90;99.90
15113;DHT22;7657;50.140;7.076;2023-08-08T14:03:18;17.90;99.90
15113;DHT22;7657;50.140;7.076;2023-08-08T14:05:45;17.90;99.90
15113;DHT22;7657;50.140;7.076;2023-08-08T14:08:12;17.80;99.90
15113;DHT22;7657;50.140;7.076;2023-08-08T14:10:39;18.10;99.90
15113;DHT22;7657;50.140;7.076;2023-08-08T14:13:06;18.10;99.90
15113;DHT22;7657;50.140;7.076;2023-08-08T14:15:33;18.30;99.90
15113;DHT22;7657;50.140;7.076;2023-08-08T14:18:01;18.50;99.90
15113;DHT22;7657;50.140;7.076;2023-08-08T14:20:28;18.60;99.90
15113;DHT22;7657;50.140;7.076;2023-08-08T14:22:55;18.50;99.90
15113;DHT22;7657;50.140;7.076;2023-08-08T14:25:22;18.40;99.90
15113;DHT22;7657;50.140;7.076;2023-08-08T14:27:49;18.50;99.90
15113;DHT22;7657;50.140;7.076;2023-08-08T14:30:16;18.50;99.90
15113;DHT22;7657;50.140;7.076;2023-08-08T14:32:43;18.50;99.90
15113;DHT22;7657;50.140;7.076;2023-08-08T14:35:11;18.40;99.90
15113;DHT22;7657;50.140;7.076;2023-08-08T14:37:39;18.30;99.90
15113;DHT22;7657;50.140;7.076;2023-08-08T14:40:07;18.30;99.90
15113;DHT22;7657;50.140;7.076;2023-08-08T14:42:35;18.30;99.90
15113;DHT22;7657;50.140;7.076;2023-08-08T14:45:02;18.30;99.90
15113;DHT22;7657;50.140;7.076;2023-08-08T14:47:29;18.20;99.90
15113;DHT22;7657;50.140;7.076;2023-08-08T14:49:56;18.10;99.90
15113;DHT22;7657;50.140;7.076;2023-08-08T14:52:25;18.10;99.90
15113;DHT22;7657;50.140;7.076;2023-08-08T14:54:51;18.20;99.90
15113;DHT22;7657;50.140;7.076;2023-08-08T14:57:18;18.30;99.90
15113;DHT22;7657;50.140;7.076;2023-08-08T14:59:45;18.40;99.90
15113;DHT22;7657;50.140;7.076;2023-08-08T15:02:12;18.50;99.90
15113;DHT22;7657;50.140;7.076;2023-08-08T15:04:39;18.60;99.90
15113;DHT22;7657;50.140;7.076;2023-08-08T15:07:06;18.50;99.90
15113;DHT22;7657;50.140;7.076;2023-08-08T15:09:34;18.40;99.90
15113;DHT22;7657;50.140;7.076;2023-08-08T15:12:03;18.40;99.90
15113;DHT22;7657;50.140;7.076;2023-08-08T15:14:30;18.40;99.90
15113;DHT22;7657;50.140;7.076;2023-08-08T15:16:57;18.30;99.90
15113;DHT22;7657;50.140;7.076;2023-08-08T15:19:23;18.20;99.90
15113;DHT22;7657;50.140;7.076;2023-08-08T15:21:50;18.10;99.90
15113;DHT22;7657;50.140;7.076;2023-08-08T15:24:17;18.00;99.90
15113;DHT22;7657;50.140;7.076;2023-08-08T15:26:45;18.00;99.90
15113;DHT22;7657;50.140;7.076;2023-08-08T15:29:12;17.90;99.90
15113;DHT22;7657;50.140;7.076;2023-08-08T15:31:39;17.90;99.90
15113;DHT22;7657;50.140;7.076;2023-08-08T15:34:06;17.80;99.90
15113;DHT22;7657;50.140;7.076;2023-08-08T15:36:33;17.90;99.90
15113;DHT22;7657;50.140;7.076;2023-08-08T15:39:00;17.90;99.90
15113;DHT22;7657;50.140;7.076;2023-08-08T15:41:27;17.90;99.90
15113;DHT22;7657;50.140;7.076;2023-08-08T15:43:55;17.90;99.90
15113;DHT22;7657;50.140;7.076;2023-08-08T15:46:22;17.90;99.90